Time;durP1;ratioP1;P1;durP2;ratioP2;P2;SDS_P1;SDS_P2;PMS_P1;PMS_P2;Temp;Humidity;BMP_temperature;BMP_pressure;BME280_temperature;BME280_humidity;BME280_pressure;Samples;Min_cycle;Max_cycle;Signal;HPM_P1;HPM_P2
2022/12/14 00:03:15;;;;;;;20.10;8.83;;;-10.40;99.90;;;;;;8368346;28;20189;-76
2022/12/14 00:07:16;;;;;;;24.00;9.27;;;-10.50;99.90;;;;;;8383314;28;20177;-80
2022/12/14 00:11:21;;;;;;;19.73;9.17;;;-10.60;99.90;;;;;;8371464;28;20189;-79
2022/12/14 00:15:22;;;;;;;22.00;10.00;;;-10.60;99.90;;;;;;8370326;28;20182;-75
2022/12/14 00:19:22;;;;;;;21.80;9.07;;;-10.60;99.90;;;;;;8376042;28;20187;-76
2022/12/14 00:23:23;;;;;;;19.00;8.37;;;-10.70;1.00;;;;;;8373483;28;20181;-79
2022/12/14 00:27:25;;;;;;;24.77;10.97;;;-10.80;99.90;;;;;;8376167;28;20195;-78
2022/12/14 00:31:26;;;;;;;24.83;10.20;;;-10.90;99.90;;;;;;8373761;28;20186;-76
2022/12/14 00:35:27;;;;;;;27.17;10.20;;;-10.90;99.90;;;;;;8370413;28;20204;-78
2022/12/14 01:04:16;;;;;;;18.40;8.97;;;-11.30;99.90;;;;;;8368363;28;20464;-80
2022/12/14 01:08:17;;;;;;;22.10;9.20;;;-11.40;99.90;;;;;;8382117;28;20184;-76
2022/12/14 01:12:17;;;;;;;24.87;9.03;;;-11.40;99.90;;;;;;8365824;28;20200;-79
2022/12/14 01:16:18;;;;;;;21.07;8.70;;;-11.50;99.90;;;;;;8365535;28;20197;-76
2022/12/14 01:20:19;;;;;;;24.37;9.63;;;-11.50;99.90;;;;;;8369061;28;20253;-76
2022/12/14 01:24:20;;;;;;;16.23;8.63;;;-11.60;99.90;;;;;;8372604;28;20184;-76
2022/12/14 01:28:24;;;;;;;24.83;9.77;;;-11.60;99.90;;;;;;8370357;28;20190;-79
2022/12/14 01:32:25;;;;;;;28.03;10.73;;;-11.60;99.90;;;;;;8372534;28;20187;-76
2022/12/14 01:36:28;;;;;;;21.07;9.37;;;-11.60;99.90;;;;;;8372795;28;20212;-78
2022/12/14 01:40:29;;;;;;;25.23;10.07;;;-11.60;99.90;;;;;;8371331;28;20169;-79
2022/12/14 01:44:30;;;;;;;26.20;8.90;;;-11.50;99.90;;;;;;8369424;28;20178;-79
2022/12/14 01:48:31;;;;;;;19.67;8.80;;;-11.60;99.90;;;;;;8366492;28;20201;-77
2022/12/14 01:52:42;;;;;;;26.13;12.23;;;-11.60;99.90;;;;;;8363218;28;20193;-78
2022/12/14 01:56:44;;;;;;;29.20;11.47;;;-11.60;99.90;;;;;;8384150;28;20244;-79
2022/12/14 02:00:45;;;;;;;33.53;12.80;;;-11.50;99.90;;;;;;8372528;28;20194;-77
2022/12/14 02:04:57;;;;;;;21.23;11.40;;;-11.60;99.90;;;;;;8363377;28;20295;-77
2022/12/14 02:08:58;;;;;;;24.33;10.40;;;-11.60;99.90;;;;;;8366166;28;20179;-79
2022/12/14 02:13:21;;;;;;;26.33;10.77;;;-11.70;99.90;;;;;;8371992;28;20186;-81
2022/12/14 02:17:22;;;;;;;22.67;10.80;;;-11.70;99.90;;;;;;8363996;28;20207;-76
2022/12/14 02:21:35;;;;;;;22.53;10.30;;;-11.80;99.90;;;;;;8362705;28;20209;-76
2022/12/14 02:26:02;;;;;;;25.57;10.53;;;-11.90;87.60;;;;;;8370994;28;20181;-76
2022/12/14 02:30:21;;;;;;;28.53;10.97;;;-11.90;47.70;;;;;;8378444;28;20195;-76
2022/12/14 02:34:24;;;;;;;27.83;10.77;;;-12.00;29.00;;;;;;8386961;28;20199;-77
2022/12/14 02:38:31;;;;;;;19.00;9.70;;;-12.00;19.00;;;;;;8361631;28;20253;-77
2022/12/14 02:43:07;;;;;;;24.30;10.93;;;-12.00;41.90;;;;;;8366799;28;20181;-78
2022/12/14 02:47:21;;;;;;;22.07;10.67;;;-12.10;89.80;;;;;;8362950;28;20184;-78
2022/12/14 02:51:25;;;;;;;29.73;9.90;;;-12.00;91.10;;;;;;8382699;28;20441;-77
2022/12/14 02:55:32;;;;;;;23.27;11.40;;;-12.00;99.90;;;;;;8361862;28;20186;-77
2022/12/14 02:59:33;;;;;;;26.33;11.97;;;-11.90;99.90;;;;;;8369095;28;20199;-78
2022/12/14 03:03:34;;;;;;;29.03;12.53;;;-11.90;99.90;;;;;;8360654;28;20322;-79
2022/12/14 03:07:42;;;;;;;30.53;10.57;;;-11.80;99.90;;;;;;8363841;28;20276;-77
2022/12/14 03:12:03;;;;;;;20.60;9.83;;;-11.80;99.90;;;;;;8374278;28;20196;-77
2022/12/14 03:16:12;;;;;;;30.63;12.87;;;-11.80;99.90;;;;;;8373149;28;20237;-80
2022/12/14 03:20:18;;;;;;;31.00;12.97;;;-11.80;98.30;;;;;;8370408;28;20185;-75
2022/12/14 03:24:29;;;;;;;27.37;10.77;;;-11.80;99.90;;;;;;8372732;28;20189;-79
2022/12/14 03:28:46;;;;;;;31.30;11.90;;;-11.80;98.00;;;;;;8376478;28;20248;-77
2022/12/14 03:32:52;;;;;;;29.33;11.83;;;-11.90;1.00;;;;;;8371855;28;20609;-80
2022/12/14 03:37:20;;;;;;;28.07;11.70;;;-12.00;1.00;;;;;;8382298;28;20222;-79
2022/12/14 03:41:45;;;;;;;23.70;10.07;;;-12.10;1.00;;;;;;8366325;28;20187;-76
2022/12/14 03:46:06;;;;;;;20.93;10.13;;;-12.20;1.00;;;;;;8375595;28;20221;-78
2022/12/14 03:50:18;;;;;;;23.47;10.93;;;-12.20;1.00;;;;;;8367142;28;20188;-77
2022/12/14 03:54:32;;;;;;;21.73;10.83;;;-12.20;1.00;;;;;;8369092;28;20209;-77
2022/12/14 03:58:58;;;;;;;28.00;12.27;;;-12.20;1.00;;;;;;8364780;28;20621;-81
2022/12/14 04:03:26;;;;;;;28.40;12.10;;;-12.10;1.00;;;;;;8371028;28;20190;-78
2022/12/14 04:07:33;;;;;;;28.80;12.70;;;-12.10;1.00;;;;;;8364586;28;20292;-76
2022/12/14 04:20:56;;;;;;;26.07;10.17;;;-12.00;1.00;;;;;;8370273;28;20186;-80
2022/12/14 04:33:51;;;;;;;32.30;13.17;;;-12.00;1.00;;;;;;8366520;28;20348;-77
2022/12/14 04:38:01;;;;;;;31.23;12.43;;;-12.10;1.00;;;;;;8375936;28;20613;-79
2022/12/14 04:42:07;;;;;;;27.43;12.60;;;-12.10;1.00;;;;;;8370020;28;20188;-76
2022/12/14 04:46:11;;;;;;;29.23;11.60;;;-12.10;1.00;;;;;;8372560;28;20185;-76
2022/12/14 04:50:19;;;;;;;25.87;11.27;;;-12.10;1.00;;;;;;8363477;28;20216;-79
2022/12/14 04:54:23;;;;;;;28.57;12.87;;;-12.10;1.00;;;;;;8362285;28;20280;-76
2022/12/14 04:58:26;;;;;;;28.47;12.80;;;-12.10;1.00;;;;;;8369963;28;20569;-78
2022/12/14 05:02:34;;;;;;;27.00;11.67;;;-12.10;1.00;;;;;;8369359;28;20260;-77
2022/12/14 05:06:51;;;;;;;32.73;13.50;;;-12.10;1.00;;;;;;8368309;28;20210;-79
2022/12/14 05:11:21;;;;;;;36.40;13.93;;;-12.00;1.00;;;;;;8374100;28;20289;-79
2022/12/14 05:15:29;;;;;;;27.93;12.33;;;-12.00;1.00;;;;;;8368210;28;20173;-79
2022/12/14 05:19:30;;;;;;;34.60;13.10;;;-11.90;1.00;;;;;;8362580;28;20254;-77
2022/12/14 05:23:31;;;;;;;32.17;12.90;;;-11.90;1.00;;;;;;8370099;28;20181;-81
2022/12/14 05:27:32;;;;;;;46.43;19.10;;;-11.90;1.00;;;;;;8369822;28;20269;-77
2022/12/14 05:31:33;;;;;;;44.63;17.80;;;-11.90;1.00;;;;;;8364668;28;20191;-79
2022/12/14 05:35:34;;;;;;;41.77;16.37;;;-11.90;1.00;;;;;;8364956;28;20257;-75
2022/12/14 05:39:35;;;;;;;42.87;17.20;;;-11.80;34.80;;;;;;8375374;28;20180;-79
2022/12/14 05:43:35;;;;;;;43.77;16.23;;;-11.80;31.90;;;;;;8364006;28;20192;-80
2022/12/14 05:47:36;;;;;;;40.13;14.93;;;-11.80;1.00;;;;;;8369010;28;20187;-79
2022/12/14 05:51:37;;;;;;;35.77;15.17;;;-11.80;1.00;;;;;;8368969;28;20608;-77
2022/12/14 05:55:45;;;;;;;35.23;15.47;;;-11.90;1.00;;;;;;8367369;28;20192;-80
2022/12/14 05:59:46;;;;;;;35.10;13.67;;;-11.90;1.00;;;;;;8364344;28;20205;-78
2022/12/14 06:03:50;;;;;;;42.63;15.90;;;-11.90;1.00;;;;;;8362660;28;20171;-79
2022/12/14 06:07:52;;;;;;;74.60;25.20;;;-11.90;8.70;;;;;;8376670;28;20182;-77
2022/12/14 06:11:53;;;;;;;55.03;19.23;;;-11.80;99.90;;;;;;8366334;28;20275;-77
2022/12/14 06:15:54;;;;;;;38.93;16.07;;;-11.70;99.90;;;;;;8366679;28;20211;-80
2022/12/14 06:19:55;;;;;;;41.27;16.13;;;-11.70;99.90;;;;;;8370823;28;20167;-79
2022/12/14 06:23:57;;;;;;;33.37;16.47;;;-11.70;99.90;;;;;;8369156;28;20262;-80
2022/12/14 06:27:57;;;;;;;49.23;17.67;;;-11.60;99.90;;;;;;8365371;28;20233;-80
2022/12/14 06:32:00;;;;;;;51.17;22.57;;;-11.60;99.90;;;;;;8368043;28;20177;-76
2022/12/14 06:36:01;;;;;;;44.83;19.70;;;-11.60;99.90;;;;;;8365200;28;20209;-79
2022/12/14 06:40:03;;;;;;;41.20;17.87;;;-11.60;98.80;;;;;;8363873;28;20234;-78
2022/12/14 06:44:05;;;;;;;37.57;16.47;;;-11.70;9.60;;;;;;8365740;28;20183;-79
2022/12/14 06:48:07;;;;;;;44.90;17.93;;;-11.80;1.00;;;;;;8369308;28;20184;-76
2022/12/14 06:52:08;;;;;;;44.10;18.43;;;-11.80;1.00;;;;;;8373786;28;20189;-78
2022/12/14 06:56:15;;;;;;;71.23;25.60;;;-11.80;1.00;;;;;;8372360;28;20205;-76
2022/12/14 07:00:16;;;;;;;75.70;32.33;;;-11.80;1.00;;;;;;8384141;28;20200;-79
2022/12/14 07:04:19;;;;;;;68.37;24.03;;;-11.80;9.90;;;;;;8374875;28;20185;-79
2022/12/14 07:08:20;;;;;;;65.30;25.23;;;-11.80;34.30;;;;;;8368040;28;20492;-76
2022/12/14 07:12:21;;;;;;;55.70;24.80;;;-11.70;99.30;;;;;;8367459;28;20212;-76
2022/12/14 07:16:28;;;;;;;77.87;27.80;;;-11.50;99.90;;;;;;8378038;28;20209;-76
2022/12/14 07:20:28;;;;;;;92.63;30.80;;;-11.50;99.90;;;;;;8376982;28;20174;-78
2022/12/14 07:24:30;;;;;;;69.13;26.03;;;-11.50;99.90;;;;;;8367287;28;20183;-78
2022/12/14 07:28:31;;;;;;;51.00;19.33;;;-11.50;99.90;;;;;;8371347;28;20183;-79
2022/12/14 07:32:32;;;;;;;40.40;15.87;;;-11.60;99.90;;;;;;8387681;28;20181;-78
2022/12/14 07:36:33;;;;;;;38.83;16.00;;;-11.70;99.90;;;;;;8381525;28;20208;-77
2022/12/14 07:40:34;;;;;;;38.27;17.07;;;-11.70;99.90;;;;;;8375064;28;20179;-77
2022/12/14 07:44:35;;;;;;;54.10;18.33;;;-11.70;99.90;;;;;;8370469;28;20561;-75
2022/12/14 07:48:36;;;;;;;41.80;18.23;;;-11.70;99.90;;;;;;8369374;28;20214;-76
2022/12/14 07:52:37;;;;;;;56.90;20.50;;;-11.50;99.90;;;;;;8371409;28;20450;-78
2022/12/14 07:56:40;;;;;;;80.33;26.80;;;-11.40;99.90;;;;;;8369468;28;20217;-79
2022/12/14 08:00:41;;;;;;;72.33;25.40;;;-11.20;99.90;;;;;;8373248;28;20178;-76
2022/12/14 08:04:42;;;;;;;57.33;23.23;;;-11.00;99.90;;;;;;8372581;28;20192;-76
2022/12/14 08:08:44;;;;;;;53.63;23.30;;;-10.90;99.90;;;;;;8370038;28;20247;-79
2022/12/14 08:12:49;;;;;;;57.97;25.30;;;-10.70;99.90;;;;;;8371907;28;20181;-76
2022/12/14 08:16:50;;;;;;;53.77;22.13;;;-10.50;99.90;;;;;;8367142;28;20260;-79
2022/12/14 08:20:51;;;;;;;46.70;19.33;;;-10.50;99.90;;;;;;8371557;28;20184;-79
2022/12/14 08:24:52;;;;;;;35.03;17.73;;;-10.50;99.90;;;;;;8373737;28;20189;-78
2022/12/14 08:28:54;;;;;;;34.80;14.97;;;-10.50;83.00;;;;;;8368848;28;20182;-76
2022/12/14 08:32:55;;;;;;;40.50;17.37;;;-10.60;38.90;;;;;;8372976;28;20251;-76
2022/12/14 08:36:56;;;;;;;38.07;16.83;;;-10.60;48.90;;;;;;8372723;28;20209;-79
2022/12/14 08:41:04;;;;;;;48.20;18.73;;;-10.60;99.90;;;;;;8366612;28;20203;-76
2022/12/14 08:45:06;;;;;;;65.83;26.20;;;-10.50;99.90;;;;;;8367472;28;20182;-81
2022/12/14 08:49:07;;;;;;;213.77;60.03;;;-10.50;99.90;;;;;;8380493;28;20296;-79
2022/12/14 08:53:08;;;;;;;159.37;46.77;;;-10.40;99.90;;;;;;8369342;28;20193;-76
2022/12/14 08:57:09;;;;;;;115.47;41.13;;;-10.20;99.90;;;;;;8367416;28;20347;-77
2022/12/14 09:01:20;;;;;;;102.40;31.73;;;-10.00;99.90;;;;;;8365862;28;20264;-76
2022/12/14 09:05:20;;;;;;;66.20;24.07;;;-9.80;1.00;;;;;;8370838;28;20181;-80
2022/12/14 09:09:22;;;;;;;75.03;25.57;;;-9.60;9.30;;;;;;8365872;28;20180;-77
2022/12/14 09:13:23;;;;;;;82.10;35.67;;;-9.40;99.90;;;;;;8366976;28;20177;-76
2022/12/14 09:17:23;;;;;;;73.13;27.90;;;-9.10;99.90;;;;;;8367459;28;20205;-77
2022/12/14 09:21:24;;;;;;;61.70;24.43;;;-8.80;99.90;;;;;;8375816;28;20182;-76
2022/12/14 09:25:25;;;;;;;55.23;24.23;;;-8.50;1.00;;;;;;8374722;28;20189;-79
2022/12/14 09:29:27;;;;;;;55.67;23.90;;;-7.90;99.90;;;;;;8372989;28;20189;-80
2022/12/14 09:33:28;;;;;;;54.40;22.37;;;-7.50;1.00;;;;;;8372863;28;20729;-80
2022/12/14 09:37:29;;;;;;;51.07;23.17;;;-7.20;99.90;;;;;;8367700;28;20201;-76
2022/12/14 09:41:33;;;;;;;43.93;23.33;;;-7.00;1.00;;;;;;8366779;28;20578;-76
2022/12/14 09:45:44;;;;;;;77.33;32.40;;;-6.90;99.90;;;;;;8366581;28;20361;-76
2022/12/14 09:50:03;;;;;;;65.13;29.20;;;-6.60;1.00;;;;;;8362978;28;20183;-76
2022/12/14 09:54:11;;;;;;;61.57;28.23;;;-6.30;1.00;;;;;;8364629;28;20188;-80
2022/12/14 09:58:21;;;;;;;63.90;27.30;;;-6.10;99.90;;;;;;8363252;28;20236;-76
2022/12/14 10:02:28;;;;;;;55.57;26.70;;;-5.80;99.90;;;;;;8370079;28;20176;-79
2022/12/14 10:06:50;;;;;;;56.03;29.17;;;-5.60;1.00;;;;;;8364630;28;20260;-79
2022/12/14 10:11:28;;;;;;;60.87;31.27;;;-5.30;99.90;;;;;;8370615;28;20559;-76
2022/12/14 10:15:47;;;;;;;72.73;32.53;;;-4.90;99.90;;;;;;8363812;28;20217;-76
2022/12/14 10:20:21;;;;;;;95.30;42.03;;;-4.60;99.90;;;;;;8363919;28;20181;-79
2022/12/14 10:24:29;;;;;;;67.97;32.13;;;-4.10;1.00;;;;;;8360081;28;20415;-79
2022/12/14 10:28:51;;;;;;;65.67;34.73;;;-3.70;99.90;;;;;;8377821;28;20484;-80
2022/12/14 10:33:15;;;;;;;57.37;31.03;;;-3.60;86.00;;;;;;8370725;28;20293;-78
2022/12/14 10:37:25;;;;;;;61.17;31.00;;;-3.40;1.00;;;;;;8363517;28;20266;-80
2022/12/14 10:41:38;;;;;;;67.13;32.77;;;-3.10;1.00;;;;;;8366743;28;20213;-75
2022/12/14 10:46:21;;;;;;;57.23;29.50;;;-2.80;1.00;;;;;;8365748;28;20179;-77
2022/12/14 10:50:55;;;;;;;56.83;27.67;;;-2.50;99.90;;;;;;8368233;28;20184;-75
2022/12/14 10:55:08;;;;;;;57.10;26.67;;;-2.50;99.90;;;;;;8361451;28;20352;-75
2022/12/14 10:59:20;;;;;;;56.37;26.87;;;-2.30;99.90;;;;;;8369215;28;20230;-78
2022/12/14 11:03:21;;;;;;;52.73;26.70;;;-2.20;99.90;;;;;;8360217;28;20231;-79
2022/12/14 11:07:35;;;;;;;57.77;28.03;;;-2.00;99.90;;;;;;8363474;28;20328;-75
2022/12/14 11:11:36;;;;;;;54.93;26.97;;;-1.80;99.90;;;;;;8366395;28;20196;-76
2022/12/14 11:15:41;;;;;;;51.20;28.50;;;-1.80;99.90;;;;;;8365078;28;20191;-78
2022/12/14 11:19:42;;;;;;;47.83;24.83;;;-1.70;99.90;;;;;;8362003;28;20212;-80
2022/12/14 11:23:46;;;;;;;48.63;25.50;;;-1.60;99.90;;;;;;8365437;28;20601;-76
2022/12/14 11:27:47;;;;;;;50.67;25.57;;;-1.40;99.90;;;;;;8378796;28;20191;-79
2022/12/14 11:31:53;;;;;;;50.87;25.63;;;-1.30;99.90;;;;;;8362487;28;20177;-77
2022/12/14 11:35:54;;;;;;;44.63;23.43;;;-1.50;99.90;;;;;;8376720;28;20215;-76
2022/12/14 11:40:02;;;;;;;39.07;21.70;;;-1.50;99.90;;;;;;8371970;28;20185;-76
2022/12/14 11:44:17;;;;;;;39.40;21.70;;;-1.60;99.90;;;;;;8368557;28;20280;-77
2022/12/14 11:48:20;;;;;;;62.27;32.17;;;-1.70;99.90;;;;;;8369480;28;20236;-80
2022/12/14 11:52:21;;;;;;;46.17;24.97;;;-1.80;99.90;;;;;;8364226;28;20224;-79
2022/12/14 11:56:22;;;;;;;39.17;20.83;;;-1.70;99.90;;;;;;8373084;28;20207;-80
2022/12/14 12:00:29;;;;;;;40.87;20.13;;;-1.80;99.90;;;;;;8369224;28;20180;-79
2022/12/14 12:04:46;;;;;;;36.87;19.07;;;-1.80;99.90;;;;;;8365998;28;20180;-80
2022/12/14 12:08:54;;;;;;;32.90;19.70;;;-1.80;99.90;;;;;;8373279;28;20196;-75
2022/12/14 12:13:16;;;;;;;35.03;18.70;;;-1.80;99.90;;;;;;8383982;28;20215;-78
2022/12/14 12:17:41;;;;;;;50.23;23.27;;;-1.70;99.90;;;;;;8375440;28;20207;-75
2022/12/14 12:21:43;;;;;;;41.40;19.37;;;-1.70;99.90;;;;;;8367567;28;20185;-78
2022/12/14 12:25:51;;;;;;;57.37;25.80;;;-1.60;99.90;;;;;;8372818;28;20178;-78
2022/12/14 12:30:03;;;;;;;55.30;25.37;;;-1.60;99.90;;;;;;8366244;28;20322;-74
2022/12/14 12:34:14;;;;;;;69.90;28.50;;;-1.60;99.90;;;;;;8376746;28;20217;-76
2022/12/14 12:38:44;;;;;;;41.57;21.43;;;-1.50;99.90;;;;;;8382205;28;20235;-78
2022/12/14 12:43:07;;;;;;;54.77;22.77;;;-1.50;99.90;;;;;;8356422;28;20184;-78
2022/12/14 12:47:33;;;;;;;55.87;22.93;;;-1.60;99.90;;;;;;8364738;28;20265;-77
2022/12/14 12:51:45;;;;;;;58.67;22.47;;;-1.60;99.90;;;;;;8375658;28;20214;-74
2022/12/14 12:55:53;;;;;;;37.33;19.20;;;-1.70;99.90;;;;;;8365845;28;20199;-77
2022/12/14 12:59:56;;;;;;;66.97;26.37;;;-1.70;99.90;;;;;;8369567;28;20205;-75
2022/12/14 13:04:09;;;;;;;47.53;22.77;;;-1.70;99.90;;;;;;8371859;28;20193;-78
2022/12/14 13:08:22;;;;;;;46.67;22.67;;;-1.60;99.90;;;;;;8364289;28;20186;-77
2022/12/14 13:12:30;;;;;;;41.90;21.03;;;-1.60;99.90;;;;;;8375099;28;20509;-76
2022/12/14 13:16:37;;;;;;;38.60;18.47;;;-1.60;99.90;;;;;;8364038;28;20197;-79
2022/12/14 13:20:38;;;;;;;27.43;15.43;;;-1.60;99.90;;;;;;8366171;28;20196;-79
2022/12/14 13:24:39;;;;;;;39.77;20.20;;;-1.60;99.90;;;;;;8366071;28;20192;-79
2022/12/14 13:28:51;;;;;;;44.47;21.10;;;-1.60;99.90;;;;;;8368685;28;20226;-78
2022/12/14 13:33:00;;;;;;;24.03;14.80;;;-1.70;99.90;;;;;;8363861;28;20202;-76
2022/12/14 13:37:13;;;;;;;62.03;25.63;;;-1.70;99.90;;;;;;8366265;28;20224;-77
2022/12/14 13:41:17;;;;;;;32.60;17.97;;;-1.80;99.90;;;;;;8370203;28;20813;-79
2022/12/14 13:45:27;;;;;;;26.30;15.07;;;-1.80;99.90;;;;;;8370848;28;20180;-78
2022/12/14 13:49:29;;;;;;;31.17;16.67;;;-1.80;99.90;;;;;;8367688;28;20192;-78
2022/12/14 13:53:49;;;;;;;28.40;16.23;;;-1.80;99.90;;;;;;8366594;28;20231;-79
2022/12/14 13:57:49;;;;;;;29.60;15.77;;;-1.90;99.90;;;;;;8380045;28;20222;-78
2022/12/14 14:01:54;;;;;;;56.80;27.00;;;-1.90;99.90;;;;;;8363959;28;20177;-79
2022/12/14 14:06:13;;;;;;;41.23;21.63;;;-2.00;99.90;;;;;;8367949;28;20207;-76
2022/12/14 14:10:33;;;;;;;49.93;24.70;;;-2.00;99.90;;;;;;8365665;28;20182;-77
2022/12/14 14:15:01;;;;;;;47.53;23.93;;;-2.10;99.90;;;;;;8362223;28;20189;-77
2022/12/14 14:19:07;;;;;;;42.10;19.97;;;-2.10;99.90;;;;;;8379538;28;20450;-76
2022/12/14 14:23:17;;;;;;;51.67;25.43;;;-2.20;99.90;;;;;;8364101;28;20204;-77
2022/12/14 14:27:21;;;;;;;44.10;21.20;;;-2.20;99.90;;;;;;8363062;28;20181;-79
2022/12/14 14:31:41;;;;;;;36.33;18.27;;;-2.30;99.90;;;;;;8365124;28;20217;-75
2022/12/14 14:35:42;;;;;;;43.20;19.47;;;-2.30;99.90;;;;;;8367140;28;20227;-76
2022/12/14 14:39:43;;;;;;;46.30;22.10;;;-2.40;99.90;;;;;;8365486;28;20967;-79
2022/12/14 14:43:54;;;;;;;39.73;20.83;;;-2.40;99.90;;;;;;8364876;28;20197;-78
2022/12/14 14:47:58;;;;;;;41.03;22.30;;;-2.50;99.90;;;;;;8366451;28;20184;-76
2022/12/14 14:52:36;;;;;;;36.47;18.83;;;-2.50;99.90;;;;;;8365608;28;20193;-80
2022/12/14 14:56:38;;;;;;;42.60;22.67;;;-2.60;99.90;;;;;;8366569;28;20598;-81
2022/12/14 15:00:46;;;;;;;36.23;19.23;;;-2.70;99.90;;;;;;8366211;28;20183;-77
2022/12/14 15:04:50;;;;;;;45.03;24.83;;;-2.80;99.90;;;;;;8363182;28;20174;-75
2022/12/14 15:09:01;;;;;;;36.67;21.70;;;-2.80;99.90;;;;;;8371925;28;20216;-79
2022/12/14 15:13:05;;;;;;;48.10;22.80;;;-2.90;99.90;;;;;;8375930;28;20514;-76
2022/12/14 15:17:32;;;;;;;40.13;21.30;;;-2.90;99.90;;;;;;8363345;28;20457;-78
2022/12/14 15:21:37;;;;;;;37.40;21.13;;;-2.90;99.90;;;;;;8365858;28;20190;-80
2022/12/14 15:25:38;;;;;;;42.53;22.30;;;-2.90;99.90;;;;;;8373037;28;20185;-76
2022/12/14 15:29:40;;;;;;;43.40;21.73;;;-2.90;99.90;;;;;;8369428;28;20203;-79
2022/12/14 15:33:42;;;;;;;37.23;19.90;;;-3.00;99.90;;;;;;8371330;28;20296;-79
2022/12/14 15:37:48;;;;;;;71.30;29.47;;;-3.00;99.90;;;;;;8373791;28;20512;-76
2022/12/14 15:41:49;;;;;;;55.10;26.40;;;-3.00;99.90;;;;;;8378362;28;20185;-80
2022/12/14 15:45:53;;;;;;;41.87;24.20;;;-3.00;99.90;;;;;;8368969;28;20178;-77
2022/12/14 15:50:12;;;;;;;56.73;27.73;;;-3.00;99.90;;;;;;8375778;28;20269;-77
2022/12/14 15:54:22;;;;;;;54.73;27.33;;;-3.00;99.90;;;;;;8367825;28;20187;-75
2022/12/14 15:58:33;;;;;;;55.90;29.87;;;-3.00;99.90;;;;;;8370688;28;20204;-79
2022/12/14 16:02:40;;;;;;;91.57;40.37;;;-3.00;99.90;;;;;;8371275;28;20183;-80
2022/12/14 16:06:55;;;;;;;95.77;43.10;;;-3.00;99.90;;;;;;8368950;28;20185;-77
2022/12/14 16:10:59;;;;;;;65.37;31.23;;;-2.90;99.90;;;;;;8369065;28;20215;-76
2022/12/14 16:15:01;;;;;;;77.00;40.87;;;-2.90;99.90;;;;;;8372562;28;20183;-80
2022/12/14 16:19:06;;;;;;;104.67;42.00;;;-3.00;99.90;;;;;;8365105;28;20212;-76
2022/12/14 16:23:16;;;;;;;82.80;37.60;;;-3.00;99.90;;;;;;8366279;28;20220;-77
2022/12/14 16:27:18;;;;;;;72.60;34.93;;;-2.90;99.90;;;;;;8370778;28;20178;-80
2022/12/14 16:31:23;;;;;;;52.83;26.60;;;-3.00;99.90;;;;;;8369400;28;20178;-78
2022/12/14 16:35:25;;;;;;;59.63;27.33;;;-3.00;99.90;;;;;;8366890;28;20202;-78
2022/12/14 16:39:33;;;;;;;58.03;28.13;;;-3.10;99.90;;;;;;8375886;28;20626;-76
2022/12/14 16:43:40;;;;;;;52.13;27.80;;;-3.10;99.90;;;;;;8366897;28;20181;-76
2022/12/14 16:48:07;;;;;;;155.40;53.43;;;-3.10;99.90;;;;;;8369308;28;20182;-78
2022/12/14 16:52:19;;;;;;;71.93;32.27;;;-3.10;99.90;;;;;;8373195;28;20186;-77
2022/12/14 16:56:23;;;;;;;55.73;27.13;;;-3.20;99.90;;;;;;8370959;28;20217;-78
2022/12/14 17:00:37;;;;;;;44.63;23.40;;;-3.10;99.90;;;;;;8355112;28;20235;-75
2022/12/14 17:04:37;;;;;;;37.07;21.27;;;-3.20;99.90;;;;;;8370805;28;20186;-78
2022/12/14 17:08:38;;;;;;;40.87;20.17;;;-3.20;99.90;;;;;;8368126;28;20261;-78
2022/12/14 17:12:39;;;;;;;65.73;28.87;;;-3.20;99.90;;;;;;8365929;28;20185;-75
2022/12/14 17:16:41;;;;;;;47.30;23.70;;;-3.20;99.90;;;;;;8364786;28;20212;-75
2022/12/14 17:20:42;;;;;;;42.10;21.07;;;-3.20;99.90;;;;;;8365934;28;20367;-77
2022/12/14 17:24:43;;;;;;;34.77;19.33;;;-3.20;99.90;;;;;;8366342;28;20165;-77
2022/12/14 17:28:44;;;;;;;48.37;22.27;;;-3.20;99.90;;;;;;8363724;28;20195;-76
2022/12/14 17:32:46;;;;;;;37.67;20.07;;;-3.20;99.90;;;;;;8365861;28;20226;-78
2022/12/14 17:36:47;;;;;;;37.07;20.10;;;-3.20;99.90;;;;;;8369578;28;20201;-78
2022/12/14 17:40:50;;;;;;;42.97;20.73;;;-3.30;99.90;;;;;;8367845;28;20282;-76
2022/12/14 17:44:54;;;;;;;35.63;20.17;;;-3.30;99.90;;;;;;8366076;28;20196;-76
2022/12/14 17:48:55;;;;;;;40.20;20.37;;;-3.40;1.00;;;;;;8370417;28;20192;-80
2022/12/14 17:52:57;;;;;;;60.60;24.70;;;-3.40;1.00;;;;;;8369052;28;20184;-77
2022/12/14 17:56:58;;;;;;;57.67;26.97;;;-3.50;1.00;;;;;;8365514;28;20217;-76
2022/12/14 18:00:59;;;;;;;91.37;37.17;;;-3.60;1.00;;;;;;8366313;28;20186;-80
2022/12/14 18:05:00;;;;;;;81.63;37.23;;;-3.60;1.00;;;;;;8374713;28;20204;-79
2022/12/14 18:09:01;;;;;;;81.63;36.90;;;-3.60;1.00;;;;;;8363602;28;20186;-80
2022/12/14 18:13:03;;;;;;;117.27;45.47;;;-3.60;1.00;;;;;;8370499;28;20185;-77
2022/12/14 18:17:04;;;;;;;111.23;47.83;;;-3.60;1.00;;;;;;8381944;28;20199;-81
2022/12/14 18:21:21;;;;;;;60.17;30.20;;;-3.60;1.00;;;;;;8367515;28;20189;-80
2022/12/14 18:25:31;;;;;;;77.23;34.60;;;-3.60;1.00;;;;;;8382777;28;20232;-76
2022/12/14 18:29:32;;;;;;;62.00;29.57;;;-3.70;1.00;;;;;;8368575;28;20187;-78
2022/12/14 18:33:33;;;;;;;68.83;31.53;;;-3.80;1.00;;;;;;8367478;28;20287;-77
2022/12/14 18:37:34;;;;;;;64.93;30.93;;;-3.90;1.00;;;;;;8365758;28;20197;-77
2022/12/14 18:41:35;;;;;;;57.63;28.47;;;-3.90;1.00;;;;;;8370982;28;20205;-77
2022/12/14 18:45:37;;;;;;;50.23;25.13;;;-4.10;1.00;;;;;;8366935;28;20610;-77
2022/12/14 18:49:38;;;;;;;51.90;27.70;;;-4.10;1.00;;;;;;8361784;28;20185;-80
2022/12/14 18:53:41;;;;;;;48.17;23.33;;;-4.20;1.00;;;;;;8365345;28;20276;-79
2022/12/14 18:57:42;;;;;;;98.27;49.37;;;-4.30;45.50;;;;;;8373392;28;20213;-78
2022/12/14 19:01:43;;;;;;;82.20;40.43;;;-4.50;99.90;;;;;;8368347;28;20224;-80
2022/12/14 19:05:45;;;;;;;74.87;33.33;;;-4.50;99.90;;;;;;8368132;28;20230;-77
2022/12/14 19:09:46;;;;;;;50.60;25.37;;;-4.50;99.90;;;;;;8348003;28;20215;-78
2022/12/14 19:13:47;;;;;;;41.00;22.13;;;-4.50;99.90;;;;;;8351767;28;20189;-81
2022/12/14 19:17:50;;;;;;;42.97;20.67;;;-4.50;99.90;;;;;;8369542;28;20300;-81
2022/12/14 19:21:51;;;;;;;50.57;24.00;;;-4.50;99.90;;;;;;8370247;28;20177;-78
2022/12/14 19:25:52;;;;;;;55.13;26.73;;;-4.50;99.90;;;;;;8371090;28;20181;-81
2022/12/14 19:29:52;;;;;;;47.17;25.43;;;-4.50;99.90;;;;;;8366124;28;20185;-81
2022/12/14 19:33:53;;;;;;;48.90;24.37;;;-4.60;99.90;;;;;;8367857;28;20200;-79
2022/12/14 19:37:54;;;;;;;44.63;23.63;;;-4.60;99.90;;;;;;8369293;28;20199;-81
2022/12/14 19:41:55;;;;;;;48.13;22.70;;;-4.60;99.90;;;;;;8369550;28;20272;-75
2022/12/14 19:45:56;;;;;;;47.60;22.97;;;-4.60;99.90;;;;;;8362441;28;20174;-79
2022/12/14 19:49:57;;;;;;;44.47;20.97;;;-4.60;99.90;;;;;;8364249;28;20177;-82
2022/12/14 19:54:01;;;;;;;43.43;20.87;;;-4.60;99.90;;;;;;8374349;28;20201;-79
2022/12/14 19:58:02;;;;;;;44.03;22.87;;;-4.60;99.90;;;;;;8373427;28;20224;-79
2022/12/14 20:02:03;;;;;;;44.40;22.67;;;-4.70;99.90;;;;;;8367182;28;20241;-80
2022/12/14 20:06:05;;;;;;;38.27;21.10;;;-4.70;1.00;;;;;;8372229;28;20181;-78
2022/12/14 20:10:06;;;;;;;44.07;22.77;;;-4.70;99.90;;;;;;8372642;28;20182;-81
2022/12/14 20:14:09;;;;;;;50.60;24.33;;;-4.70;99.90;;;;;;8374717;28;20181;-78
2022/12/14 20:18:10;;;;;;;48.93;24.63;;;-4.80;1.00;;;;;;8366825;28;20551;-76
2022/12/14 20:22:13;;;;;;;54.47;23.73;;;-4.80;1.00;;;;;;8373539;28;20177;-77
2022/12/14 20:26:17;;;;;;;43.23;21.00;;;-4.90;3.00;;;;;;8369511;28;20510;-76
2022/12/14 20:30:18;;;;;;;48.17;21.23;;;-5.00;99.90;;;;;;8365546;28;20185;-80
2022/12/14 20:34:20;;;;;;;46.53;25.37;;;-5.10;99.90;;;;;;8371080;28;20197;-79
2022/12/14 20:38:24;;;;;;;44.27;22.10;;;-5.20;99.90;;;;;;8368824;28;20222;-76
2022/12/14 20:42:25;;;;;;;49.80;22.13;;;-5.40;99.90;;;;;;8374748;28;20296;-76
2022/12/14 20:46:31;;;;;;;57.17;25.07;;;-5.60;99.90;;;;;;8375306;28;20619;-79
2022/12/14 20:50:34;;;;;;;52.40;24.07;;;-5.80;99.90;;;;;;8370484;28;20186;-80
2022/12/14 20:54:35;;;;;;;54.00;23.57;;;-5.90;99.90;;;;;;8371675;28;20178;-79
2022/12/14 20:58:36;;;;;;;46.53;20.87;;;-6.10;99.90;;;;;;8370635;28;20218;-79
2022/12/14 21:02:37;;;;;;;40.63;21.70;;;-6.20;99.90;;;;;;8372034;28;20180;-77
2022/12/14 21:06:43;;;;;;;44.53;20.47;;;-6.20;1.00;;;;;;8374030;28;20192;-80
2022/12/14 21:10:44;;;;;;;39.03;20.83;;;-6.30;1.00;;;;;;8376146;28;20224;-79
2022/12/14 21:14:46;;;;;;;40.90;20.07;;;-6.30;1.00;;;;;;8372227;28;20194;-76
2022/12/14 21:18:47;;;;;;;43.33;19.63;;;-6.40;1.00;;;;;;8367610;28;20214;-79
2022/12/14 21:22:48;;;;;;;39.00;19.63;;;-6.40;1.00;;;;;;8366400;28;20272;-80
2022/12/14 21:26:49;;;;;;;36.47;19.27;;;-6.50;1.00;;;;;;8372806;28;20194;-80
2022/12/14 21:30:50;;;;;;;36.20;17.23;;;-6.50;1.00;;;;;;8378915;28;20456;-77